sensor_id;sensor_type;location;lat;lon;timestamp;temperature;humidity
52531;DHT22;38441;52.894;6.040;2023-12-04T00:06:18;0.70;99.90
52531;DHT22;38441;52.894;6.040;2023-12-04T00:08:44;0.80;99.90
52531;DHT22;38441;52.894;6.040;2023-12-04T00:11:09;0.70;99.90
52531;DHT22;38441;52.894;6.040;2023-12-04T00:16:01;0.70;99.90
52531;DHT22;38441;52.894;6.040;2023-12-04T00:42:47;0.80;99.90
52531;DHT22;38441;52.894;6.040;2023-12-04T00:45:13;0.80;99.90
52531;DHT22;38441;52.894;6.040;2023-12-04T00:50:05;0.80;99.90
52531;DHT22;38441;52.894;6.040;2023-12-04T00:52:31;0.90;99.90
52531;DHT22;38441;52.894;6.040;2023-12-04T00:54:56;0.80;99.90
52531;DHT22;38441;52.894;6.040;2023-12-04T00:59:48;0.80;99.90
52531;DHT22;38441;52.894;6.040;2023-12-04T01:04:40;0.70;99.90
52531;DHT22;38441;52.894;6.040;2023-12-04T01:07:09;0.80;99.90
52531;DHT22;38441;52.894;6.040;2023-12-04T01:09:35;0.80;99.90
52531;DHT22;38441;52.894;6.040;2023-12-04T01:12:01;0.80;99.90
52531;DHT22;38441;52.894;6.040;2023-12-04T01:16:53;0.80;99.90
52531;DHT22;38441;52.894;6.040;2023-12-04T01:21:45;0.80;99.90
52531;DHT22;38441;52.894;6.040;2023-12-04T01:24:11;0.90;99.90
52531;DHT22;38441;52.894;6.040;2023-12-04T01:38:46;0.90;99.90
52531;DHT22;38441;52.894;6.040;2023-12-04T01:43:38;0.70;99.90
52531;DHT22;38441;52.894;6.040;2023-12-04T01:46:04;0.70;99.90
52531;DHT22;38441;52.894;6.040;2023-12-04T01:48:30;0.80;99.90
52531;DHT22;38441;52.894;6.040;2023-12-04T01:50:56;0.90;99.90
52531;DHT22;38441;52.894;6.040;2023-12-04T01:58:15;0.90;99.90
52531;DHT22;38441;52.894;6.040;2023-12-04T02:00:42;0.90;99.90
52531;DHT22;38441;52.894;6.040;2023-12-04T02:03:08;0.80;99.90
52531;DHT22;38441;52.894;6.040;2023-12-04T02:05:35;0.70;99.90
52531;DHT22;38441;52.894;6.040;2023-12-04T02:08:01;0.90;99.90
52531;DHT22;38441;52.894;6.040;2023-12-04T02:10:26;0.90;99.90
52531;DHT22;38441;52.894;6.040;2023-12-04T02:12:52;0.80;99.90
52531;DHT22;38441;52.894;6.040;2023-12-04T02:15:18;0.60;99.90
52531;DHT22;38441;52.894;6.040;2023-12-04T02:17:44;0.90;99.90
52531;DHT22;38441;52.894;6.040;2023-12-04T02:20:13;0.90;99.90
52531;DHT22;38441;52.894;6.040;2023-12-04T02:22:38;1.00;99.90
52531;DHT22;38441;52.894;6.040;2023-12-04T02:25:20;0.80;99.90
52531;DHT22;38441;52.894;6.040;2023-12-04T02:27:49;0.70;99.90
52531;DHT22;38441;52.894;6.040;2023-12-04T02:30:18;0.70;99.90
52531;DHT22;38441;52.894;6.040;2023-12-04T02:32:46;0.90;99.90
52531;DHT22;38441;52.894;6.040;2023-12-04T02:35:14;0.90;99.90
52531;DHT22;38441;52.894;6.040;2023-12-04T02:37:42;0.90;99.90
52531;DHT22;38441;52.894;6.040;2023-12-04T02:42:34;1.00;99.90
52531;DHT22;38441;52.894;6.040;2023-12-04T03:04:30;0.90;99.90
52531;DHT22;38441;52.894;6.040;2023-12-04T03:06:55;0.90;99.90
52531;DHT22;38441;52.894;6.040;2023-12-04T03:09:21;0.80;99.90
52531;DHT22;38441;52.894;6.040;2023-12-04T03:11:47;1.00;99.90
52531;DHT22;38441;52.894;6.040;2023-12-04T03:16:40;0.90;99.90
52531;DHT22;38441;52.894;6.040;2023-12-04T03:19:05;0.80;99.90
52531;DHT22;38441;52.894;6.040;2023-12-04T03:21:31;0.60;99.90
52531;DHT22;38441;52.894;6.040;2023-12-04T03:41:27;1.00;99.90
52531;DHT22;38441;52.894;6.040;2023-12-04T03:43:53;0.90;99.90
52531;DHT22;38441;52.894;6.040;2023-12-04T03:46:18;0.90;99.90
52531;DHT22;38441;52.894;6.040;2023-12-04T03:48:44;0.90;99.90
52531;DHT22;38441;52.894;6.040;2023-12-04T03:51:10;0.90;99.90
52531;DHT22;38441;52.894;6.040;2023-12-04T03:53:36;0.90;99.90
52531;DHT22;38441;52.894;6.040;2023-12-04T03:56:02;1.00;99.90
52531;DHT22;38441;52.894;6.040;2023-12-04T03:58:27;0.90;99.90
52531;DHT22;38441;52.894;6.040;2023-12-04T04:05:45;0.90;99.90
52531;DHT22;38441;52.894;6.040;2023-12-04T04:08:11;0.90;99.90
52531;DHT22;38441;52.894;6.040;2023-12-04T04:10:36;1.20;99.90
52531;DHT22;38441;52.894;6.040;2023-12-04T04:13:02;0.90;99.90
52531;DHT22;38441;52.894;6.040;2023-12-04T04:20:20;0.90;99.90
52531;DHT22;38441;52.894;6.040;2023-12-04T04:22:48;0.90;99.90
52531;DHT22;38441;52.894;6.040;2023-12-04T04:30:06;0.90;99.90
52531;DHT22;38441;52.894;6.040;2023-12-04T04:32:33;0.90;99.90
52531;DHT22;38441;52.894;6.040;2023-12-04T04:34:58;0.90;99.90
52531;DHT22;38441;52.894;6.040;2023-12-04T04:52:00;1.00;99.90
52531;DHT22;38441;52.894;6.040;2023-12-04T04:54:26;1.00;99.90
52531;DHT22;38441;52.894;6.040;2023-12-04T04:56:51;1.00;99.90
52531;DHT22;38441;52.894;6.040;2023-12-04T04:59:17;0.80;99.90
52531;DHT22;38441;52.894;6.040;2023-12-04T05:21:11;0.90;99.90
52531;DHT22;38441;52.894;6.040;2023-12-04T05:23:38;1.00;99.90
52531;DHT22;38441;52.894;6.040;2023-12-04T05:26:05;1.00;99.90
52531;DHT22;38441;52.894;6.040;2023-12-04T05:38:18;1.00;99.90
52531;DHT22;38441;52.894;6.040;2023-12-04T05:40:44;1.00;99.90
52531;DHT22;38441;52.894;6.040;2023-12-04T05:43:10;1.00;99.90
52531;DHT22;38441;52.894;6.040;2023-12-04T06:00:12;1.10;99.90
52531;DHT22;38441;52.894;6.040;2023-12-04T06:07:35;1.00;99.90
52531;DHT22;38441;52.894;6.040;2023-12-04T06:10:01;1.00;99.90
52531;DHT22;38441;52.894;6.040;2023-12-04T06:12:27;1.00;99.90
52531;DHT22;38441;52.894;6.040;2023-12-04T06:14:52;1.00;99.90
52531;DHT22;38441;52.894;6.040;2023-12-04T06:19:46;0.80;99.90
52531;DHT22;38441;52.894;6.040;2023-12-04T06:27:18;1.10;99.90
52531;DHT22;38441;52.894;6.040;2023-12-04T06:29:47;1.00;99.90
52531;DHT22;38441;52.894;6.040;2023-12-04T06:34:40;0.90;99.90
52531;DHT22;38441;52.894;6.040;2023-12-04T06:37:10;0.90;99.90
52531;DHT22;38441;52.894;6.040;2023-12-04T06:39:37;1.00;99.90
52531;DHT22;38441;52.894;6.040;2023-12-04T06:42:05;0.90;99.90
52531;DHT22;38441;52.894;6.040;2023-12-04T06:44:31;0.90;99.90
52531;DHT22;38441;52.894;6.040;2023-12-04T06:46:59;0.90;99.90
52531;DHT22;38441;52.894;6.040;2023-12-04T06:49:25;0.90;99.90
52531;DHT22;38441;52.894;6.040;2023-12-04T06:51:53;0.90;99.90
52531;DHT22;38441;52.894;6.040;2023-12-04T07:06:36;1.00;99.90
52531;DHT22;38441;52.894;6.040;2023-12-04T07:09:02;1.20;99.90
52531;DHT22;38441;52.894;6.040;2023-12-04T07:11:27;1.00;99.90
52531;DHT22;38441;52.894;6.040;2023-12-04T07:21:11;1.00;99.90
52531;DHT22;38441;52.894;6.040;2023-12-04T07:26:04;0.70;99.90
52531;DHT22;38441;52.894;6.040;2023-12-04T07:28:29;1.00;99.90
52531;DHT22;38441;52.894;6.040;2023-12-04T07:52:50;1.00;99.90
52531;DHT22;38441;52.894;6.040;2023-12-04T07:55:16;1.00;99.90
52531;DHT22;38441;52.894;6.040;2023-12-04T08:12:19;1.10;99.90
52531;DHT22;38441;52.894;6.040;2023-12-04T08:14:44;1.00;99.90
52531;DHT22;38441;52.894;6.040;2023-12-04T08:17:12;1.00;99.90
52531;DHT22;38441;52.894;6.040;2023-12-04T08:26:59;1.00;99.90
52531;DHT22;38441;52.894;6.040;2023-12-04T08:29:25;1.10;99.90
52531;DHT22;38441;52.894;6.040;2023-12-04T08:31:50;1.30;99.90
52531;DHT22;38441;52.894;6.040;2023-12-04T08:34:16;1.10;99.90
52531;DHT22;38441;52.894;6.040;2023-12-04T08:46:27;1.10;99.90
52531;DHT22;38441;52.894;6.040;2023-12-04T08:56:11;1.20;99.90
52531;DHT22;38441;52.894;6.040;2023-12-04T09:01:04;1.20;99.90
52531;DHT22;38441;52.894;6.040;2023-12-04T09:03:30;1.20;99.90
52531;DHT22;38441;52.894;6.040;2023-12-04T09:05:59;1.20;99.90
52531;DHT22;38441;52.894;6.040;2023-12-04T09:10:52;1.30;99.90
52531;DHT22;38441;52.894;6.040;2023-12-04T09:13:18;1.30;99.90
52531;DHT22;38441;52.894;6.040;2023-12-04T09:15:44;1.30;99.90
52531;DHT22;38441;52.894;6.040;2023-12-04T09:18:09;1.40;99.90
52531;DHT22;38441;52.894;6.040;2023-12-04T09:23:01;1.00;99.90
52531;DHT22;38441;52.894;6.040;2023-12-04T09:27:53;1.40;99.90
52531;DHT22;38441;52.894;6.040;2023-12-04T09:30:18;1.50;99.90
52531;DHT22;38441;52.894;6.040;2023-12-04T09:35:10;1.40;99.90
52531;DHT22;38441;52.894;6.040;2023-12-04T09:37:36;1.40;99.90
52531;DHT22;38441;52.894;6.040;2023-12-04T09:40:02;1.50;99.90
52531;DHT22;38441;52.894;6.040;2023-12-04T09:42:29;1.50;99.90
52531;DHT22;38441;52.894;6.040;2023-12-04T09:44:56;1.50;99.90
52531;DHT22;38441;52.894;6.040;2023-12-04T09:47:23;1.50;99.90
52531;DHT22;38441;52.894;6.040;2023-12-04T09:49:51;1.50;99.90
52531;DHT22;38441;52.894;6.040;2023-12-04T09:52:19;1.60;99.90
52531;DHT22;38441;52.894;6.040;2023-12-04T09:54:44;1.60;99.90
52531;DHT22;38441;52.894;6.040;2023-12-04T09:57:11;1.60;99.90
52531;DHT22;38441;52.894;6.040;2023-12-04T09:59:38;1.60;99.90
52531;DHT22;38441;52.894;6.040;2023-12-04T10:02:05;1.60;99.90
52531;DHT22;38441;52.894;6.040;2023-12-04T10:04:32;1.50;99.90
52531;DHT22;38441;52.894;6.040;2023-12-04T10:06:59;1.70;99.90
52531;DHT22;38441;52.894;6.040;2023-12-04T10:09:24;1.60;99.90
52531;DHT22;38441;52.894;6.040;2023-12-04T10:11:50;1.60;99.90
52531;DHT22;38441;52.894;6.040;2023-12-04T10:14:21;1.70;99.90
52531;DHT22;38441;52.894;6.040;2023-12-04T10:16:47;1.60;99.90
52531;DHT22;38441;52.894;6.040;2023-12-04T10:19:22;1.60;99.90
52531;DHT22;38441;52.894;6.040;2023-12-04T10:24:32;1.70;99.90
52531;DHT22;38441;52.894;6.040;2023-12-04T10:29:28;1.60;99.90
52531;DHT22;38441;52.894;6.040;2023-12-04T10:34:21;1.60;99.90
52531;DHT22;38441;52.894;6.040;2023-12-04T10:39:17;1.50;99.90
52531;DHT22;38441;52.894;6.040;2023-12-04T10:41:44;1.60;99.90
52531;DHT22;38441;52.894;6.040;2023-12-04T10:44:10;1.60;99.90
52531;DHT22;38441;52.894;6.040;2023-12-04T10:46:41;1.80;99.90
52531;DHT22;38441;52.894;6.040;2023-12-04T10:49:09;1.70;99.90
52531;DHT22;38441;52.894;6.040;2023-12-04T10:51:35;1.80;99.90
52531;DHT22;38441;52.894;6.040;2023-12-04T10:54:01;1.90;99.90
52531;DHT22;38441;52.894;6.040;2023-12-04T10:59:11;1.80;99.90
52531;DHT22;38441;52.894;6.040;2023-12-04T11:01:38;1.90;99.90
52531;DHT22;38441;52.894;6.040;2023-12-04T11:04:07;1.80;99.90
52531;DHT22;38441;52.894;6.040;2023-12-04T11:06:39;2.10;99.90
52531;DHT22;38441;52.894;6.040;2023-12-04T11:09:05;2.00;99.90
52531;DHT22;38441;52.894;6.040;2023-12-04T11:11:35;1.90;99.90
52531;DHT22;38441;52.894;6.040;2023-12-04T11:14:04;2.00;99.90
52531;DHT22;38441;52.894;6.040;2023-12-04T11:16:44;2.20;99.90
52531;DHT22;38441;52.894;6.040;2023-12-04T11:19:27;1.80;99.90
52531;DHT22;38441;52.894;6.040;2023-12-04T11:22:00;2.10;99.90
52531;DHT22;38441;52.894;6.040;2023-12-04T11:24:26;2.00;99.90
52531;DHT22;38441;52.894;6.040;2023-12-04T11:26:52;2.10;99.90
52531;DHT22;38441;52.894;6.040;2023-12-04T11:29:19;2.10;99.90
52531;DHT22;38441;52.894;6.040;2023-12-04T11:31:45;2.60;99.90
52531;DHT22;38441;52.894;6.040;2023-12-04T11:34:12;2.00;99.90
52531;DHT22;38441;52.894;6.040;2023-12-04T11:36:38;2.20;99.90
52531;DHT22;38441;52.894;6.040;2023-12-04T11:39:09;1.90;99.90
52531;DHT22;38441;52.894;6.040;2023-12-04T11:41:38;2.00;99.90
52531;DHT22;38441;52.894;6.040;2023-12-04T11:44:12;1.90;99.90
52531;DHT22;38441;52.894;6.040;2023-12-04T11:46:38;2.00;99.90
52531;DHT22;38441;52.894;6.040;2023-12-04T11:49:27;1.90;99.90
52531;DHT22;38441;52.894;6.040;2023-12-04T12:18:58;2.20;99.90
52531;DHT22;38441;52.894;6.040;2023-12-04T12:21:25;2.10;99.90
52531;DHT22;38441;52.894;6.040;2023-12-04T12:23:51;2.20;99.90
52531;DHT22;38441;52.894;6.040;2023-12-04T12:26:16;2.20;99.90
52531;DHT22;38441;52.894;6.040;2023-12-04T12:41:00;2.10;99.90
52531;DHT22;38441;52.894;6.040;2023-12-04T12:43:27;2.10;99.90
52531;DHT22;38441;52.894;6.040;2023-12-04T12:45:53;2.00;99.90
52531;DHT22;38441;52.894;6.040;2023-12-04T12:48:19;2.10;99.90
52531;DHT22;38441;52.894;6.040;2023-12-04T12:50:46;2.10;99.90
52531;DHT22;38441;52.894;6.040;2023-12-04T12:53:13;2.10;99.90
52531;DHT22;38441;52.894;6.040;2023-12-04T12:55:42;2.10;99.90
52531;DHT22;38441;52.894;6.040;2023-12-04T12:58:12;2.00;99.90
52531;DHT22;38441;52.894;6.040;2023-12-04T13:03:16;2.10;99.90
52531;DHT22;38441;52.894;6.040;2023-12-04T13:05:42;2.10;99.90
52531;DHT22;38441;52.894;6.040;2023-12-04T13:10:34;2.10;99.90
52531;DHT22;38441;52.894;6.040;2023-12-04T13:12:59;2.10;99.90
52531;DHT22;38441;52.894;6.040;2023-12-04T13:15:26;3.00;99.90
52531;DHT22;38441;52.894;6.040;2023-12-04T13:17:51;2.20;99.90
52531;DHT22;38441;52.894;6.040;2023-12-04T13:20:17;2.20;99.90
52531;DHT22;38441;52.894;6.040;2023-12-04T13:22:43;2.20;99.90
52531;DHT22;38441;52.894;6.040;2023-12-04T13:25:10;2.20;99.90
52531;DHT22;38441;52.894;6.040;2023-12-04T13:27:39;2.10;99.90
52531;DHT22;38441;52.894;6.040;2023-12-04T13:30:06;2.10;99.90
52531;DHT22;38441;52.894;6.040;2023-12-04T15:15:15;2.00;99.90
52531;DHT22;38441;52.894;6.040;2023-12-04T15:17:56;1.70;99.90
52531;DHT22;38441;52.894;6.040;2023-12-04T15:20:42;1.90;99.90
52531;DHT22;38441;52.894;6.040;2023-12-04T15:23:09;1.60;99.90
52531;DHT22;38441;52.894;6.040;2023-12-04T15:25:34;1.80;99.90
52531;DHT22;38441;52.894;6.040;2023-12-04T15:28:00;1.60;99.90
52531;DHT22;38441;52.894;6.040;2023-12-04T15:30:29;1.70;99.90
52531;DHT22;38441;52.894;6.040;2023-12-04T15:32:55;1.60;99.90
52531;DHT22;38441;52.894;6.040;2023-12-04T15:35:21;1.70;99.90
52531;DHT22;38441;52.894;6.040;2023-12-04T15:37:46;1.60;99.90
52531;DHT22;38441;52.894;6.040;2023-12-04T15:40:12;1.60;99.90
52531;DHT22;38441;52.894;6.040;2023-12-04T15:42:38;1.60;99.90
52531;DHT22;38441;52.894;6.040;2023-12-04T15:45:04;1.60;99.90
52531;DHT22;38441;52.894;6.040;2023-12-04T15:47:30;1.50;99.90
52531;DHT22;38441;52.894;6.040;2023-12-04T15:54:52;1.60;99.90
52531;DHT22;38441;52.894;6.040;2023-12-04T16:02:11;1.60;99.90
52531;DHT22;38441;52.894;6.040;2023-12-04T16:07:03;1.40;99.90
52531;DHT22;38441;52.894;6.040;2023-12-04T16:09:29;1.60;99.90
52531;DHT22;38441;52.894;6.040;2023-12-04T16:11:54;1.60;99.90
52531;DHT22;38441;52.894;6.040;2023-12-04T16:14:20;1.50;99.90
52531;DHT22;38441;52.894;6.040;2023-12-04T16:28:57;1.60;99.90
52531;DHT22;38441;52.894;6.040;2023-12-04T16:31:23;1.60;99.90
52531;DHT22;38441;52.894;6.040;2023-12-04T16:33:49;1.70;99.90
52531;DHT22;38441;52.894;6.040;2023-12-04T16:38:43;1.70;99.90
52531;DHT22;38441;52.894;6.040;2023-12-04T16:41:30;1.70;99.90
52531;DHT22;38441;52.894;6.040;2023-12-04T16:56:13;1.60;99.90
52531;DHT22;38441;52.894;6.040;2023-12-04T16:58:42;1.60;99.90
52531;DHT22;38441;52.894;6.040;2023-12-04T17:13:19;2.00;99.90
52531;DHT22;38441;52.894;6.040;2023-12-04T17:20:37;1.70;99.90
52531;DHT22;38441;52.894;6.040;2023-12-04T17:30:22;1.80;99.90
52531;DHT22;38441;52.894;6.040;2023-12-04T17:32:48;1.80;99.90
52531;DHT22;38441;52.894;6.040;2023-12-04T17:35:14;1.70;99.90
52531;DHT22;38441;52.894;6.040;2023-12-04T17:37:40;1.80;99.90
52531;DHT22;38441;52.894;6.040;2023-12-04T17:40:07;1.70;99.90
52531;DHT22;38441;52.894;6.040;2023-12-04T17:54:46;1.60;99.90
52531;DHT22;38441;52.894;6.040;2023-12-04T17:57:13;1.50;99.90
52531;DHT22;38441;52.894;6.040;2023-12-04T17:59:39;1.60;99.90
52531;DHT22;38441;52.894;6.040;2023-12-04T18:02:07;1.60;99.90
52531;DHT22;38441;52.894;6.040;2023-12-04T18:09:28;1.60;99.90
52531;DHT22;38441;52.894;6.040;2023-12-04T18:38:53;1.50;99.90
52531;DHT22;38441;52.894;6.040;2023-12-04T18:41:20;1.40;99.90
52531;DHT22;38441;52.894;6.040;2023-12-04T18:43:47;1.40;99.90
52531;DHT22;38441;52.894;6.040;2023-12-04T18:48:43;1.30;99.90
52531;DHT22;38441;52.894;6.040;2023-12-04T18:51:10;1.40;99.90
52531;DHT22;38441;52.894;6.040;2023-12-04T18:56:06;1.40;99.90
52531;DHT22;38441;52.894;6.040;2023-12-04T19:10:43;1.30;99.90
52531;DHT22;38441;52.894;6.040;2023-12-04T19:13:09;1.30;99.90
52531;DHT22;38441;52.894;6.040;2023-12-04T19:15:37;1.20;99.90
52531;DHT22;38441;52.894;6.040;2023-12-04T19:28:01;1.30;99.90
52531;DHT22;38441;52.894;6.040;2023-12-04T19:32:54;1.20;99.90
52531;DHT22;38441;52.894;6.040;2023-12-04T19:37:50;1.10;99.90
52531;DHT22;38441;52.894;6.040;2023-12-04T19:45:11;1.20;99.90
52531;DHT22;38441;52.894;6.040;2023-12-04T19:47:37;1.10;99.90
52531;DHT22;38441;52.894;6.040;2023-12-04T19:50:03;1.10;99.90
52531;DHT22;38441;52.894;6.040;2023-12-04T19:54:55;1.10;99.90
52531;DHT22;38441;52.894;6.040;2023-12-04T19:57:20;1.10;99.90
52531;DHT22;38441;52.894;6.040;2023-12-04T20:04:40;1.10;99.90
52531;DHT22;38441;52.894;6.040;2023-12-04T20:09:34;1.00;99.90
52531;DHT22;38441;52.894;6.040;2023-12-04T20:12:00;1.00;99.90
52531;DHT22;38441;52.894;6.040;2023-12-04T20:14:26;1.10;99.90
52531;DHT22;38441;52.894;6.040;2023-12-04T20:19:18;1.20;99.90
52531;DHT22;38441;52.894;6.040;2023-12-04T20:26:36;1.20;99.90
52531;DHT22;38441;52.894;6.040;2023-12-04T20:41:13;0.90;99.90
52531;DHT22;38441;52.894;6.040;2023-12-04T20:43:39;1.20;99.90
52531;DHT22;38441;52.894;6.040;2023-12-04T20:46:05;1.30;99.90
52531;DHT22;38441;52.894;6.040;2023-12-04T20:48:33;1.30;99.90
52531;DHT22;38441;52.894;6.040;2023-12-04T20:53:25;1.20;99.90
52531;DHT22;38441;52.894;6.040;2023-12-04T21:08:05;1.20;99.90
52531;DHT22;38441;52.894;6.040;2023-12-04T21:20:15;1.00;99.90
52531;DHT22;38441;52.894;6.040;2023-12-04T21:27:34;1.20;99.90
52531;DHT22;38441;52.894;6.040;2023-12-04T21:29:59;1.30;99.90
52531;DHT22;38441;52.894;6.040;2023-12-04T21:34:52;1.20;99.90
52531;DHT22;38441;52.894;6.040;2023-12-04T21:37:18;1.10;99.90
52531;DHT22;38441;52.894;6.040;2023-12-04T21:39:45;1.20;99.90
52531;DHT22;38441;52.894;6.040;2023-12-04T21:42:13;1.10;99.90
52531;DHT22;38441;52.894;6.040;2023-12-04T21:44:39;1.10;99.90
52531;DHT22;38441;52.894;6.040;2023-12-04T21:49:31;1.20;99.90
52531;DHT22;38441;52.894;6.040;2023-12-04T21:56:49;1.10;99.90
52531;DHT22;38441;52.894;6.040;2023-12-04T22:28:28;1.10;99.90
52531;DHT22;38441;52.894;6.040;2023-12-04T22:45:32;1.00;99.90
52531;DHT22;38441;52.894;6.040;2023-12-04T22:52:50;1.10;99.90
52531;DHT22;38441;52.894;6.040;2023-12-04T22:55:15;1.00;99.90
52531;DHT22;38441;52.894;6.040;2023-12-04T22:57:43;1.00;99.90
52531;DHT22;38441;52.894;6.040;2023-12-04T23:00:09;1.00;99.90
52531;DHT22;38441;52.894;6.040;2023-12-04T23:02:38;1.00;99.90
52531;DHT22;38441;52.894;6.040;2023-12-04T23:41:36;1.00;99.90
52531;DHT22;38441;52.894;6.040;2023-12-04T23:44:01;1.00;99.90
